createdAt,value
2022-11-29T00:01:31.635Z,18.83
2022-11-29T00:03:59.179Z,18.58
2022-11-29T00:06:28.311Z,18.70
2022-11-29T00:08:56.827Z,18.90
2022-11-29T00:11:45.707Z,18.30
2022-11-29T00:14:16.415Z,18.33
2022-11-29T00:16:43.831Z,17.23
2022-11-29T00:19:12.099Z,17.45
2022-11-29T00:21:38.769Z,16.75
2022-11-29T00:24:05.711Z,16.30
2022-11-29T00:26:32.303Z,15.43
2022-11-29T00:28:59.023Z,16.98
2022-11-29T00:31:30.248Z,16.60
2022-11-29T00:33:57.724Z,16.77
2022-11-29T00:36:24.985Z,17.65
2022-11-29T00:38:51.599Z,16.52
2022-11-29T00:41:18.700Z,16.05
2022-11-29T00:43:45.320Z,16.27
2022-11-29T00:46:12.696Z,13.82
2022-11-29T00:48:39.519Z,14.85
2022-11-29T00:51:06.830Z,14.88
2022-11-29T00:53:34.756Z,14.70
2022-11-29T00:56:01.705Z,14.70
2022-11-29T00:58:28.674Z,14.00
2022-11-29T01:00:56.382Z,13.88
2022-11-29T01:03:23.551Z,13.07
2022-11-29T01:05:51.127Z,13.60
2022-11-29T01:08:18.570Z,12.18
2022-11-29T01:10:45.146Z,12.98
2022-11-29T01:13:11.999Z,13.00
2022-11-29T01:15:38.593Z,13.68
2022-11-29T01:18:05.612Z,13.40
2022-11-29T01:20:32.234Z,12.55
2022-11-29T01:22:58.844Z,13.32
2022-11-29T01:25:25.527Z,13.20
2022-11-29T01:27:52.187Z,14.00
2022-11-29T01:30:19.586Z,12.40
2022-11-29T01:32:46.165Z,12.65
2022-11-29T01:35:12.840Z,12.85
2022-11-29T01:37:39.428Z,13.10
2022-11-29T01:40:06.850Z,12.40
2022-11-29T01:42:33.443Z,12.38
2022-11-29T01:45:04.541Z,13.35
2022-11-29T01:47:32.046Z,12.55
2022-11-29T01:49:59.686Z,11.73
2022-11-29T01:52:30.487Z,11.75
2022-11-29T01:55:01.653Z,12.52
2022-11-29T01:57:29.242Z,11.38
2022-11-29T02:00:02.204Z,12.77
2022-11-29T02:02:37.080Z,11.27
2022-11-29T02:05:04.908Z,12.10
2022-11-29T02:07:31.925Z,10.85
2022-11-29T02:09:58.825Z,11.82
2022-11-29T02:12:50.597Z,11.73
2022-11-29T02:15:46.012Z,11.20
2022-11-29T02:18:25.915Z,11.32
2022-11-29T02:21:02.602Z,12.50
2022-11-29T02:24:03.380Z,12.32
2022-11-29T02:26:58.902Z,10.88
2022-11-29T02:30:07.614Z,11.27
2022-11-29T02:33:09.576Z,11.02
2022-11-29T02:35:39.402Z,10.98
2022-11-29T02:38:34.058Z,11.90
2022-11-29T02:41:15.697Z,11.57
2022-11-29T02:44:00.988Z,12.75
2022-11-29T02:46:45.965Z,12.27
2022-11-29T02:49:19.941Z,12.52
2022-11-29T02:54:38.477Z,10.77
2022-11-29T02:57:40.249Z,10.85
2022-11-29T03:00:17.809Z,11.00
2022-11-29T03:03:06.239Z,11.48
2022-11-29T03:05:45.253Z,11.30
2022-11-29T03:08:32.922Z,12.07
2022-11-29T03:11:33.606Z,11.98
2022-11-29T03:14:26.594Z,11.98
2022-11-29T03:17:00.750Z,11.13
2022-11-29T03:20:19.895Z,11.10
2022-11-29T03:23:04.947Z,11.25
2022-11-29T03:25:42.218Z,11.10
2022-11-29T03:28:29.469Z,11.68
2022-11-29T03:31:00.910Z,10.98
2022-11-29T03:34:05.357Z,11.95
2022-11-29T03:37:03.447Z,11.73
2022-11-29T03:39:57.350Z,11.25
2022-11-29T03:42:30.264Z,8.52
2022-11-29T03:45:10.762Z,12.10
2022-11-29T03:47:49.068Z,12.32
2022-11-29T03:50:22.031Z,11.90
2022-11-29T03:53:01.636Z,9.60
2022-11-29T03:55:46.220Z,13.27
2022-11-29T03:58:50.271Z,13.48
2022-11-29T04:01:50.595Z,14.23
2022-11-29T04:04:29.155Z,13.05
2022-11-29T04:07:13.923Z,12.60
2022-11-29T04:10:16.970Z,12.60
2022-11-29T04:13:00.891Z,13.05
2022-11-29T04:16:19.416Z,13.48
2022-11-29T04:18:58.747Z,12.85
2022-11-29T04:21:31.075Z,12.32
2022-11-29T04:24:14.181Z,13.00
2022-11-29T04:27:07.056Z,12.88
2022-11-29T04:29:52.477Z,11.50
2022-11-29T04:32:50.160Z,10.50
2022-11-29T04:35:27.517Z,10.32
2022-11-29T04:38:31.565Z,10.73
2022-11-29T04:41:20.326Z,11.13
2022-11-29T04:44:01.745Z,11.23
2022-11-29T04:46:46.997Z,11.38
2022-11-29T04:49:44.401Z,11.90
2022-11-29T04:52:52.902Z,10.63
2022-11-29T04:55:54.287Z,10.05
2022-11-29T04:58:43.712Z,9.73
2022-11-29T05:01:19.623Z,10.63
2022-11-29T05:04:00.805Z,11.40
2022-11-29T05:06:55.180Z,10.45
2022-11-29T05:09:34.761Z,10.27
2022-11-29T05:12:31.353Z,9.13
2022-11-29T05:15:00.933Z,9.90
2022-11-29T05:18:18.604Z,9.23
2022-11-29T05:21:04.019Z,8.75
2022-11-29T05:24:11.315Z,8.55
2022-11-29T05:26:55.084Z,8.23
2022-11-29T05:29:35.146Z,9.15
2022-11-29T05:32:17.518Z,8.60
2022-11-29T05:34:52.802Z,7.40
2022-11-29T05:37:44.419Z,8.25
2022-11-29T05:40:16.497Z,7.30
2022-11-29T05:43:20.778Z,7.53
2022-11-29T05:45:57.574Z,7.25
2022-11-29T05:48:27.288Z,6.35
2022-11-29T05:51:22.046Z,7.10
2022-11-29T05:54:30.209Z,6.03
2022-11-29T05:57:06.382Z,6.68
2022-11-29T05:59:36.737Z,6.22
2022-11-29T06:02:38.183Z,5.43
2022-11-29T06:05:16.975Z,5.60
2022-11-29T06:07:48.236Z,6.00
2022-11-29T06:10:18.198Z,5.57
2022-11-29T06:13:08.160Z,5.28
2022-11-29T06:16:18.691Z,5.38
2022-11-29T06:19:05.717Z,5.40
2022-11-29T06:21:40.632Z,5.38
2022-11-29T06:24:29.100Z,5.70
2022-11-29T06:27:18.988Z,4.80
2022-11-29T06:29:45.620Z,4.95
2022-11-29T06:32:18.813Z,5.05
2022-11-29T06:35:00.622Z,5.50
2022-11-29T06:37:38.788Z,5.25
2022-11-29T06:40:09.717Z,4.70
2022-11-29T06:42:36.305Z,5.75
2022-11-29T06:45:03.784Z,6.03
2022-11-29T06:47:49.550Z,4.78
2022-11-29T06:51:06.037Z,4.50
2022-11-29T06:53:48.987Z,4.13
2022-11-29T06:56:15.534Z,4.20
2022-11-29T06:58:57.983Z,3.75
2022-11-29T07:01:37.413Z,3.88
2022-11-29T07:04:52.650Z,3.97
2022-11-29T07:07:21.422Z,3.70
2022-11-29T07:09:51.358Z,4.25
2022-11-29T07:12:18.712Z,4.38
2022-11-29T07:14:45.921Z,4.20
2022-11-29T07:17:25.608Z,4.15
2022-11-29T07:20:08.225Z,3.70
2022-11-29T07:23:10.225Z,3.28
2022-11-29T07:25:54.911Z,3.72
2022-11-29T07:28:45.447Z,4.22
2022-11-29T07:31:54.357Z,4.15
2022-11-29T07:34:52.409Z,4.20
2022-11-29T07:37:33.859Z,4.40
2022-11-29T07:40:03.302Z,4.22
2022-11-29T07:43:08.741Z,4.35
2022-11-29T07:45:36.722Z,3.67
2022-11-29T07:48:04.066Z,4.10
2022-11-29T07:50:31.533Z,4.05
2022-11-29T07:52:59.187Z,3.80
2022-11-29T07:55:26.592Z,3.88
2022-11-29T07:57:53.751Z,4.20
2022-11-29T08:00:21.393Z,3.47
2022-11-29T08:02:49.115Z,3.75
2022-11-29T08:05:16.289Z,4.07
2022-11-29T08:07:43.168Z,3.72
2022-11-29T08:10:13.138Z,4.38
2022-11-29T08:12:49.901Z,3.58
2022-11-29T08:15:18.498Z,3.72
2022-11-29T08:17:45.185Z,3.50
2022-11-29T08:20:13.347Z,3.85
2022-11-29T08:22:39.998Z,3.83
2022-11-29T08:25:07.616Z,3.50
2022-11-29T08:27:35.122Z,3.90
2022-11-29T08:30:01.997Z,3.97
2022-11-29T08:32:28.780Z,3.58
2022-11-29T08:34:55.389Z,3.35
2022-11-29T08:37:22.026Z,3.30
2022-11-29T08:39:48.664Z,3.58
2022-11-29T08:42:15.237Z,3.28
2022-11-29T08:44:41.885Z,3.03
2022-11-29T08:47:28.893Z,3.17
2022-11-29T08:50:01.582Z,3.88
2022-11-29T08:52:47.347Z,3.10
2022-11-29T08:55:14.299Z,3.80
2022-11-29T08:57:41.481Z,3.20
2022-11-29T09:00:09.454Z,3.22
2022-11-29T09:02:37.216Z,3.50
2022-11-29T09:05:05.640Z,3.45
2022-11-29T09:07:32.598Z,3.72
2022-11-29T09:10:04.764Z,3.50
2022-11-29T09:12:32.698Z,3.83
2022-11-29T09:14:59.523Z,5.18
2022-11-29T09:17:26.599Z,4.55
2022-11-29T09:19:53.180Z,3.95
2022-11-29T09:22:19.783Z,3.90
2022-11-29T09:24:47.178Z,3.90
2022-11-29T09:27:14.058Z,4.03
2022-11-29T09:29:40.616Z,3.45
2022-11-29T09:32:07.458Z,4.32
2022-11-29T09:34:34.113Z,4.30
2022-11-29T09:37:00.806Z,4.30
2022-11-29T09:39:27.468Z,4.72
2022-11-29T09:42:27.073Z,4.90
2022-11-29T09:45:07.961Z,4.28
2022-11-29T09:47:50.972Z,4.35
2022-11-29T09:50:35.800Z,3.42
2022-11-29T09:53:39.870Z,3.55
2022-11-29T09:56:32.898Z,3.50
2022-11-29T09:59:04.663Z,3.80
2022-11-29T10:01:42.914Z,4.35
2022-11-29T10:04:16.954Z,3.80
2022-11-29T10:06:58.856Z,3.97
2022-11-29T10:09:44.682Z,3.88
2022-11-29T10:12:20.134Z,3.78
2022-11-29T10:14:59.024Z,4.55
2022-11-29T10:17:32.936Z,4.40
2022-11-29T10:22:40.742Z,4.35
2022-11-29T10:25:10.350Z,7.40
2022-11-29T10:27:40.429Z,5.47
2022-11-29T10:30:13.948Z,4.47
2022-11-29T10:32:42.058Z,3.97
2022-11-29T10:35:15.234Z,3.58
2022-11-29T10:37:41.989Z,3.70
2022-11-29T10:40:35.771Z,6.20
2022-11-29T10:43:03.450Z,3.17
2022-11-29T10:45:34.016Z,4.18
2022-11-29T10:48:08.015Z,4.53
2022-11-29T10:50:36.268Z,4.18
2022-11-29T10:53:27.277Z,4.30
2022-11-29T10:56:01.573Z,4.15
2022-11-29T10:58:31.222Z,4.63
2022-11-29T11:01:02.206Z,3.38
2022-11-29T11:03:40.945Z,3.13
2022-11-29T11:06:24.075Z,3.33
2022-11-29T11:09:12.077Z,2.90
2022-11-29T11:11:39.650Z,3.30
2022-11-29T11:14:39.926Z,3.88
2022-11-29T11:17:29.992Z,3.10
2022-11-29T11:20:08.234Z,3.22
2022-11-29T11:22:39.689Z,3.55
2022-11-29T11:25:30.959Z,3.10
2022-11-29T11:28:10.530Z,3.58
2022-11-29T11:30:37.303Z,4.00
2022-11-29T11:33:06.619Z,3.88
2022-11-29T11:35:33.328Z,4.70
2022-11-29T11:37:59.928Z,3.72
2022-11-29T11:40:29.310Z,3.22
2022-11-29T11:42:59.168Z,3.58
2022-11-29T11:45:36.624Z,3.40
2022-11-29T11:48:12.291Z,3.65
2022-11-29T11:50:44.749Z,3.50
2022-11-29T11:53:28.888Z,3.00
2022-11-29T11:58:37.344Z,4.18
2022-11-29T12:01:12.877Z,3.42
2022-11-29T12:03:45.706Z,3.28
2022-11-29T12:06:41.115Z,2.78
2022-11-29T12:09:36.022Z,2.78
2022-11-29T12:12:27.785Z,3.03
2022-11-29T12:15:20.354Z,3.40
2022-11-29T12:17:49.655Z,4.43
2022-11-29T12:20:22.800Z,3.50
2022-11-29T12:23:11.314Z,4.32
2022-11-29T12:25:50.959Z,4.68
2022-11-29T12:28:20.765Z,4.05
2022-11-29T12:31:25.170Z,4.07
2022-11-29T12:34:09.944Z,4.38
2022-11-29T12:37:18.321Z,3.75
2022-11-29T12:39:56.966Z,3.17
2022-11-29T12:42:36.173Z,3.13
2022-11-29T12:45:29.774Z,3.53
2022-11-29T12:48:18.011Z,3.92
2022-11-29T12:51:13.852Z,3.63
2022-11-29T12:54:08.135Z,3.00
2022-11-29T12:56:43.721Z,3.55
2022-11-29T12:59:29.945Z,3.38
2022-11-29T13:02:13.732Z,2.95
2022-11-29T13:05:01.722Z,3.45
2022-11-29T13:07:46.343Z,4.10
2022-11-29T13:10:31.564Z,3.50
2022-11-29T13:13:05.057Z,3.80
2022-11-29T13:15:38.381Z,4.57
2022-11-29T13:18:17.014Z,3.95
2022-11-29T13:21:04.627Z,4.28
2022-11-29T13:26:36.660Z,4.45
2022-11-29T13:29:04.087Z,4.63
2022-11-29T13:31:31.384Z,4.40
2022-11-29T13:34:23.590Z,3.97
2022-11-29T13:37:02.972Z,4.70
2022-11-29T13:40:07.298Z,4.65
2022-11-29T13:42:53.321Z,3.28
2022-11-29T13:45:25.973Z,3.50
2022-11-29T13:48:24.962Z,3.22
2022-11-29T13:50:58.591Z,4.03
2022-11-29T13:53:46.858Z,4.45
2022-11-29T13:56:29.676Z,4.22
2022-11-29T13:58:58.593Z,4.15
2022-11-29T14:01:26.655Z,4.22
2022-11-29T14:04:23.666Z,4.60
2022-11-29T14:07:00.917Z,5.95
2022-11-29T14:09:55.667Z,5.63
2022-11-29T14:12:31.068Z,6.93
2022-11-29T14:15:04.909Z,6.53
2022-11-29T14:20:22.271Z,6.03
2022-11-29T14:23:04.250Z,7.95
2022-11-29T14:25:56.596Z,7.53
2022-11-29T14:28:23.124Z,8.85
2022-11-29T14:30:54.491Z,9.63
2022-11-29T14:33:31.772Z,9.20
2022-11-29T14:36:12.430Z,9.40
2022-11-29T14:38:51.838Z,11.05
2022-11-29T14:41:51.112Z,10.57
2022-11-29T14:44:21.835Z,11.50
2022-11-29T14:46:59.113Z,14.85
2022-11-29T14:49:28.075Z,13.18
2022-11-29T14:52:08.595Z,12.15
2022-11-29T14:54:36.986Z,12.85
2022-11-29T14:57:41.387Z,12.60
2022-11-29T15:00:12.594Z,14.02
2022-11-29T15:02:50.148Z,16.05
2022-11-29T15:05:27.538Z,15.27
2022-11-29T15:08:18.809Z,15.70
2022-11-29T15:10:51.694Z,16.80
2022-11-29T15:13:41.419Z,18.98
2022-11-29T15:16:55.507Z,17.25
2022-11-29T15:19:52.007Z,15.63
2022-11-29T15:22:20.785Z,16.38
2022-11-29T15:25:18.354Z,15.32
2022-11-29T15:27:51.817Z,15.13
2022-11-29T15:30:20.510Z,17.48
2022-11-29T15:32:47.416Z,17.45
2022-11-29T15:35:19.014Z,18.35
2022-11-29T15:37:46.932Z,19.55
2022-11-29T15:40:17.267Z,17.90
2022-11-29T15:42:49.875Z,18.55
2022-11-29T15:45:37.330Z,19.38
2022-11-29T15:48:22.735Z,19.08
2022-11-29T15:51:16.412Z,18.23
2022-11-29T15:54:13.223Z,19.73
2022-11-29T15:56:43.700Z,19.05
2022-11-29T15:59:26.886Z,21.45
2022-11-29T16:01:56.111Z,21.30
2022-11-29T16:04:24.349Z,21.95
2022-11-29T16:06:51.834Z,21.77
2022-11-29T16:09:22.663Z,21.05
2022-11-29T16:11:49.559Z,24.52
2022-11-29T16:14:25.038Z,23.23
2022-11-29T16:16:54.440Z,24.23
2022-11-29T16:19:36.960Z,24.20
2022-11-29T16:22:12.652Z,25.08
2022-11-29T16:25:01.379Z,26.73
2022-11-29T16:27:35.003Z,27.67
2022-11-29T16:30:02.434Z,27.55
2022-11-29T16:32:42.854Z,26.67
2022-11-29T16:35:18.506Z,26.77
2022-11-29T16:37:46.427Z,26.50
2022-11-29T16:40:29.127Z,29.60
2022-11-29T16:43:04.635Z,31.42
2022-11-29T16:45:35.219Z,31.70
2022-11-29T16:48:02.905Z,31.02
2022-11-29T16:50:31.105Z,31.15
2022-11-29T16:53:32.706Z,32.72
2022-11-29T16:55:59.379Z,29.90
2022-11-29T16:58:26.601Z,30.38
2022-11-29T17:00:53.747Z,30.13
2022-11-29T17:03:20.368Z,32.17
2022-11-29T17:05:47.009Z,29.92
2022-11-29T17:08:13.606Z,35.08
2022-11-29T17:10:40.220Z,32.30
2022-11-29T17:13:10.989Z,34.33
2022-11-29T17:15:37.716Z,32.13
2022-11-29T17:18:04.404Z,36.90
2022-11-29T17:20:31.076Z,38.22
2022-11-29T17:22:57.997Z,38.45
2022-11-29T17:25:24.647Z,39.95
2022-11-29T17:27:51.331Z,39.30
2022-11-29T17:30:18.117Z,39.78
2022-11-29T17:32:44.743Z,40.47
2022-11-29T17:35:11.399Z,40.75
2022-11-29T17:37:37.976Z,42.83
2022-11-29T17:40:05.014Z,40.47
2022-11-29T17:42:31.658Z,39.92
2022-11-29T17:44:58.230Z,39.42
2022-11-29T17:47:24.836Z,39.67
2022-11-29T17:49:51.435Z,39.85
2022-11-29T17:52:18.053Z,37.65
2022-11-29T17:54:44.758Z,37.13
2022-11-29T17:57:11.490Z,37.17
2022-11-29T17:59:40.146Z,38.00
2022-11-29T18:02:07.351Z,38.53
2022-11-29T18:04:34.043Z,38.00
2022-11-29T18:07:01.503Z,39.25
2022-11-29T18:09:28.093Z,38.03
2022-11-29T18:11:54.719Z,39.90
2022-11-29T18:14:24.108Z,40.88
2022-11-29T18:16:51.346Z,43.05
2022-11-29T18:19:20.533Z,42.17
2022-11-29T18:21:47.925Z,42.25
2022-11-29T18:24:14.811Z,42.17
2022-11-29T18:26:42.137Z,40.25
2022-11-29T18:29:09.271Z,38.83
2022-11-29T18:31:38.840Z,37.15
2022-11-29T18:34:09.411Z,37.83
2022-11-29T18:36:38.770Z,36.47
2022-11-29T18:39:08.632Z,35.03
2022-11-29T18:41:36.310Z,37.28
2022-11-29T18:44:08.885Z,40.25
2022-11-29T18:46:37.241Z,38.60
2022-11-29T18:49:05.980Z,39.15
2022-11-29T18:51:37.113Z,40.05
2022-11-29T18:54:04.452Z,40.03
2022-11-29T18:56:34.300Z,39.97
2022-11-29T18:59:03.973Z,41.22
2022-11-29T19:01:34.244Z,41.72
2022-11-29T19:04:01.808Z,37.17
2022-11-29T19:06:39.248Z,39.40
2022-11-29T19:09:11.071Z,39.30
2022-11-29T19:11:37.846Z,37.67
2022-11-29T19:14:10.895Z,39.85
2022-11-29T19:16:38.911Z,41.07
2022-11-29T19:19:05.707Z,40.00
2022-11-29T19:21:32.875Z,41.92
2022-11-29T19:24:01.747Z,41.53
2022-11-29T19:26:30.487Z,41.95
2022-11-29T19:28:59.233Z,40.40
2022-11-29T19:31:27.170Z,40.28
2022-11-29T19:33:55.225Z,40.53
2022-11-29T19:36:27.334Z,38.42
2022-11-29T19:38:54.750Z,38.20
2022-11-29T19:41:32.643Z,37.70
2022-11-29T19:44:01.995Z,38.28
2022-11-29T19:46:31.702Z,40.53
2022-11-29T19:48:59.732Z,39.15
2022-11-29T19:51:28.650Z,42.00
2022-11-29T19:53:57.953Z,38.20
2022-11-29T19:56:25.037Z,40.10
2022-11-29T19:58:52.045Z,39.72
2022-11-29T20:01:24.901Z,38.92
2022-11-29T20:03:52.545Z,40.28
2022-11-29T20:06:19.430Z,39.78
2022-11-29T20:08:46.597Z,39.88
2022-11-29T20:11:15.864Z,40.13
2022-11-29T20:13:45.423Z,40.17
2022-11-29T20:16:18.342Z,39.55
2022-11-29T20:18:50.956Z,39.53
2022-11-29T20:21:21.462Z,41.17
2022-11-29T20:23:48.577Z,39.00
2022-11-29T20:26:20.073Z,38.33
2022-11-29T20:28:47.530Z,37.00
2022-11-29T20:31:17.981Z,37.40
2022-11-29T20:33:46.472Z,37.65
2022-11-29T20:36:47.568Z,35.92
2022-11-29T20:39:28.513Z,35.47
2022-11-29T20:42:25.258Z,36.97
2022-11-29T20:45:06.939Z,37.38
2022-11-29T20:47:56.515Z,35.45
2022-11-29T20:50:26.264Z,35.20
2022-11-29T20:53:09.689Z,37.03
2022-11-29T20:55:43.695Z,36.95
2022-11-29T20:58:13.082Z,34.63
2022-11-29T21:00:39.906Z,36.38
2022-11-29T21:03:06.618Z,36.75
2022-11-29T21:05:33.427Z,36.55
2022-11-29T21:08:00.091Z,34.83
2022-11-29T21:10:26.761Z,35.47
2022-11-29T21:12:53.695Z,35.60
2022-11-29T21:15:20.741Z,35.70
2022-11-29T21:17:47.628Z,34.53
2022-11-29T21:20:22.989Z,35.80
2022-11-29T21:22:52.880Z,35.42
2022-11-29T21:25:25.831Z,34.70
2022-11-29T21:27:54.841Z,27.37
2022-11-29T21:30:23.539Z,35.50
2022-11-29T21:32:51.031Z,34.55
2022-11-29T21:35:18.361Z,35.95
2022-11-29T21:37:46.009Z,35.83
2022-11-29T21:40:14.258Z,37.90
2022-11-29T21:42:41.051Z,38.33
2022-11-29T21:45:14.579Z,37.28
2022-11-29T21:47:43.048Z,38.17
2022-11-29T21:50:10.533Z,35.40
2022-11-29T21:52:37.166Z,37.75
2022-11-29T21:55:04.869Z,35.15
2022-11-29T21:57:31.462Z,33.30
2022-11-29T21:59:58.057Z,34.45
2022-11-29T22:02:24.739Z,35.90
2022-11-29T22:04:51.368Z,35.30
2022-11-29T22:07:18.005Z,33.95
2022-11-29T22:09:44.719Z,36.25
2022-11-29T22:12:32.310Z,37.03
2022-11-29T22:14:58.281Z,34.60
2022-11-29T22:17:24.882Z,35.92
2022-11-29T22:19:51.477Z,36.03
2022-11-29T22:22:18.164Z,35.42
2022-11-29T22:24:45.139Z,35.65
2022-11-29T22:27:12.070Z,33.78
2022-11-29T22:29:38.811Z,32.75
2022-11-29T22:32:06.146Z,33.85
2022-11-29T22:34:32.822Z,35.33
2022-11-29T22:36:59.408Z,35.80
2022-11-29T22:39:26.146Z,35.90
2022-11-29T22:41:54.953Z,36.33
2022-11-29T22:44:25.345Z,35.13
2022-11-29T22:46:52.527Z,35.00
2022-11-29T22:49:19.364Z,34.67
2022-11-29T22:51:46.087Z,36.80
2022-11-29T22:54:15.376Z,36.17
2022-11-29T22:56:43.124Z,35.75
2022-11-29T22:59:09.876Z,37.25
2022-11-29T23:01:38.793Z,38.20
2022-11-29T23:04:07.970Z,37.60
2022-11-29T23:06:35.543Z,37.00
2022-11-29T23:09:10.444Z,37.53
2022-11-29T23:11:37.860Z,36.97
2022-11-29T23:14:04.596Z,38.25
2022-11-29T23:16:32.692Z,38.03
2022-11-29T23:19:00.610Z,38.65
2022-11-29T23:21:30.566Z,37.47
2022-11-29T23:23:59.916Z,36.78
2022-11-29T23:26:40.445Z,38.40
2022-11-29T23:29:10.104Z,38.67
2022-11-29T23:31:37.003Z,39.83
2022-11-29T23:34:04.179Z,40.17
2022-11-29T23:36:31.167Z,38.53
2022-11-29T23:38:57.839Z,39.90
2022-11-29T23:41:24.674Z,38.10
2022-11-29T23:43:51.241Z,39.28
2022-11-29T23:46:21.129Z,38.85
2022-11-29T23:48:48.285Z,38.63
2022-11-29T23:51:15.417Z,36.53
2022-11-29T23:53:42.597Z,37.33
2022-11-29T23:56:14.960Z,38.88
2022-11-29T23:58:42.148Z,34.50
